createdAt,value
2024-02-14T00:00:00.394Z,60.20
2024-02-14T00:02:51.146Z,62.30
2024-02-14T00:05:02.241Z,52.50
2024-02-14T00:07:12.575Z,58.90
2024-02-14T00:09:23.033Z,61.70
2024-02-14T00:11:33.255Z,54.90
2024-02-14T00:13:43.388Z,51.60
2024-02-14T00:15:53.874Z,50.00
2024-02-14T00:18:04.116Z,53.20
2024-02-14T00:20:14.665Z,55.50
2024-02-14T00:22:25.324Z,56.50
2024-02-14T00:24:36.571Z,55.30
2024-02-14T00:26:47.313Z,54.40
2024-02-14T00:28:57.806Z,56.40
2024-02-14T00:31:08.713Z,54.20
2024-02-14T00:33:21.178Z,51.90
2024-02-14T00:35:31.989Z,53.70
2024-02-14T00:37:42.707Z,52.80
2024-02-14T00:39:54.600Z,49.00
2024-02-14T00:42:05.730Z,53.60
2024-02-14T00:44:17.584Z,53.90
2024-02-14T00:46:28.174Z,52.50
2024-02-14T00:48:38.802Z,53.80
2024-02-14T00:50:49.780Z,54.70
2024-02-14T00:53:00.870Z,53.90
2024-02-14T00:55:11.804Z,57.50
2024-02-14T00:57:26.587Z,53.40
2024-02-14T00:59:37.167Z,55.10
2024-02-14T01:01:47.584Z,54.60
2024-02-14T01:03:58.373Z,51.20
2024-02-14T01:06:09.257Z,52.90
2024-02-14T01:08:19.777Z,55.80
2024-02-14T01:10:30.543Z,55.80
2024-02-14T01:12:41.317Z,52.30
2024-02-14T01:14:52.040Z,54.60
2024-02-14T01:17:04.378Z,53.50
2024-02-14T01:19:15.282Z,53.90
2024-02-14T01:21:25.918Z,50.30
2024-02-14T01:23:36.674Z,53.00
2024-02-14T01:25:47.435Z,55.40
2024-02-14T01:27:58.309Z,51.00
2024-02-14T01:30:10.940Z,62.70
2024-02-14T01:32:21.995Z,58.00
2024-02-14T01:34:32.678Z,56.50
2024-02-14T01:36:43.531Z,55.20
2024-02-14T01:38:54.306Z,62.00
2024-02-14T01:41:06.193Z,58.60
2024-02-14T01:43:16.739Z,56.50
2024-02-14T01:45:28.327Z,58.70
2024-02-14T01:47:42.170Z,54.80
2024-02-14T01:49:52.749Z,55.00
2024-02-14T01:52:04.620Z,52.20
2024-02-14T01:54:18.065Z,53.40
2024-02-14T01:56:28.730Z,54.00
2024-02-14T01:58:40.304Z,54.80
2024-02-14T02:00:56.208Z,59.30
2024-02-14T02:03:07.141Z,55.70
2024-02-14T02:05:19.377Z,52.10
2024-02-14T02:07:32.372Z,54.80
2024-02-14T02:09:42.932Z,53.10
2024-02-14T02:11:56.780Z,53.90
2024-02-14T02:14:07.851Z,57.00
2024-02-14T02:16:19.749Z,56.90
2024-02-14T02:18:31.878Z,61.50
2024-02-14T02:20:45.852Z,59.10
2024-02-14T02:22:56.746Z,56.20
2024-02-14T02:25:08.133Z,58.50
2024-02-14T02:27:18.787Z,54.80
2024-02-14T02:29:29.716Z,53.10
2024-02-14T02:31:40.323Z,59.70
2024-02-14T02:33:51.977Z,52.60
2024-02-14T02:36:02.645Z,57.20
2024-02-14T02:38:13.144Z,57.90
2024-02-14T02:40:25.228Z,56.60
2024-02-14T02:42:36.000Z,67.60
2024-02-14T02:44:49.104Z,59.20
2024-02-14T02:47:01.416Z,50.40
2024-02-14T02:49:14.658Z,57.60
2024-02-14T02:51:25.609Z,56.20
2024-02-14T02:53:37.440Z,55.30
2024-02-14T02:55:48.208Z,55.90
2024-02-14T02:57:59.753Z,53.40
2024-02-14T03:00:13.590Z,53.80
2024-02-14T03:02:24.063Z,58.20
2024-02-14T03:04:45.892Z,53.40
2024-02-14T03:07:08.654Z,54.00
2024-02-14T03:09:19.590Z,55.90
2024-02-14T03:11:30.172Z,50.20
2024-02-14T03:13:41.634Z,59.00
2024-02-14T03:15:52.095Z,56.00
2024-02-14T03:18:03.936Z,57.00
2024-02-14T03:20:16.935Z,56.50
2024-02-14T03:22:29.103Z,58.00
2024-02-14T03:24:40.184Z,62.60
2024-02-14T03:26:52.224Z,62.40
2024-02-14T03:29:06.931Z,62.40
2024-02-14T03:31:19.538Z,54.20
2024-02-14T03:33:30.703Z,64.20
2024-02-14T03:35:42.002Z,58.90
2024-02-14T03:37:53.945Z,57.40
2024-02-14T03:40:05.902Z,55.20
2024-02-14T03:42:17.462Z,51.80
2024-02-14T03:44:28.055Z,61.40
2024-02-14T03:46:38.694Z,56.50
2024-02-14T03:48:49.610Z,55.30
2024-02-14T03:51:01.169Z,53.80
2024-02-14T03:53:11.646Z,57.30
2024-02-14T03:55:24.005Z,57.00
2024-02-14T03:57:36.102Z,58.40
2024-02-14T03:59:47.209Z,57.40
2024-02-14T04:01:58.863Z,55.90
2024-02-14T04:04:09.393Z,58.10
2024-02-14T04:06:20.410Z,55.70
2024-02-14T04:08:31.525Z,57.40
2024-02-14T04:10:53.131Z,61.50
2024-02-14T04:13:15.132Z,59.50
2024-02-14T04:15:26.302Z,54.90
2024-02-14T04:17:37.276Z,55.10
2024-02-14T04:19:47.971Z,57.40
2024-02-14T04:21:58.704Z,53.00
2024-02-14T04:24:09.614Z,56.20
2024-02-14T04:26:21.400Z,53.60
2024-02-14T04:28:31.911Z,58.20
2024-02-14T04:30:42.583Z,51.00
2024-02-14T04:32:53.383Z,61.50
2024-02-14T04:35:04.611Z,51.70
2024-02-14T04:37:16.101Z,52.30
2024-02-14T04:39:26.885Z,55.20
2024-02-14T04:41:49.790Z,52.60
2024-02-14T04:44:08.476Z,53.30
2024-02-14T04:46:19.087Z,50.70
2024-02-14T04:48:29.709Z,47.10
2024-02-14T04:50:40.382Z,58.70
2024-02-14T04:52:51.124Z,58.50
2024-02-14T04:55:01.642Z,55.40
2024-02-14T04:57:13.107Z,52.80
2024-02-14T04:59:23.765Z,50.60
2024-02-14T05:01:35.112Z,58.90
2024-02-14T05:03:45.506Z,48.70
2024-02-14T05:05:56.318Z,56.80
2024-02-14T05:08:07.822Z,57.10
2024-02-14T05:10:18.687Z,52.90
2024-02-14T05:12:29.353Z,54.90
2024-02-14T05:14:40.933Z,50.40
2024-02-14T05:16:51.720Z,53.30
2024-02-14T05:19:02.677Z,56.50
2024-02-14T05:21:13.476Z,57.10
2024-02-14T05:23:24.308Z,51.10
2024-02-14T05:25:35.380Z,46.10
2024-02-14T05:27:48.158Z,49.60
2024-02-14T05:30:00.340Z,46.50
2024-02-14T05:32:11.159Z,45.60
2024-02-14T05:34:22.480Z,49.10
2024-02-14T05:36:33.207Z,49.50
2024-02-14T05:38:44.211Z,50.40
2024-02-14T05:40:56.170Z,56.40
2024-02-14T05:43:08.060Z,52.80
2024-02-14T05:45:18.637Z,54.80
2024-02-14T05:47:29.094Z,52.10
2024-02-14T05:49:41.119Z,50.10
2024-02-14T05:51:53.690Z,50.10
2024-02-14T05:54:04.403Z,54.80
2024-02-14T05:56:14.911Z,56.20
2024-02-14T05:58:29.260Z,50.80
2024-02-14T06:00:40.521Z,48.20
2024-02-14T06:02:51.349Z,50.80
2024-02-14T06:05:02.514Z,52.10
2024-02-14T06:07:13.041Z,58.20
2024-02-14T06:09:24.007Z,52.80
2024-02-14T06:11:34.505Z,53.80
2024-02-14T06:13:45.640Z,54.30
2024-02-14T06:15:56.517Z,53.00
2024-02-14T06:18:07.384Z,63.20
2024-02-14T06:20:18.346Z,58.80
2024-02-14T06:22:29.119Z,58.90
2024-02-14T06:24:39.882Z,62.00
2024-02-14T06:26:50.690Z,61.40
2024-02-14T06:29:01.239Z,63.80
2024-02-14T06:31:12.186Z,64.20
2024-02-14T06:33:23.680Z,66.30
2024-02-14T06:35:34.405Z,64.60
2024-02-14T06:37:52.775Z,63.70
2024-02-14T06:40:11.220Z,60.30
2024-02-14T06:42:21.681Z,63.60
2024-02-14T06:44:33.727Z,61.40
2024-02-14T06:46:45.986Z,65.00
2024-02-14T06:48:57.606Z,67.00
2024-02-14T06:51:08.733Z,60.90
2024-02-14T06:53:19.961Z,65.30
2024-02-14T06:55:33.397Z,63.00
2024-02-14T06:57:43.911Z,66.40
2024-02-14T06:59:54.705Z,71.30
2024-02-14T07:02:13.201Z,72.20
2024-02-14T07:04:26.234Z,67.10
2024-02-14T07:06:37.278Z,69.80
2024-02-14T07:08:50.881Z,71.60
2024-02-14T07:11:02.323Z,72.30
2024-02-14T07:13:12.904Z,77.20
2024-02-14T07:15:26.269Z,75.70
2024-02-14T07:17:36.807Z,74.70
2024-02-14T07:19:50.839Z,70.10
2024-02-14T07:22:02.705Z,69.10
2024-02-14T07:24:13.476Z,71.50
2024-02-14T07:26:24.549Z,70.90
2024-02-14T07:28:36.035Z,76.40
2024-02-14T07:30:46.705Z,76.50
2024-02-14T07:32:57.740Z,74.40
2024-02-14T07:35:08.896Z,70.90
2024-02-14T07:37:20.360Z,68.80
2024-02-14T07:39:31.086Z,75.30
2024-02-14T07:41:41.771Z,64.90
2024-02-14T07:43:53.697Z,67.40
2024-02-14T07:46:06.456Z,65.20
2024-02-14T07:48:17.076Z,70.60
2024-02-14T07:50:29.044Z,70.30
2024-02-14T07:52:44.821Z,71.30
2024-02-14T07:54:56.585Z,63.20
2024-02-14T07:57:07.341Z,70.50
2024-02-14T07:59:17.815Z,66.00
2024-02-14T08:01:28.984Z,65.70
2024-02-14T08:03:41.268Z,73.20
2024-02-14T08:05:52.330Z,65.00
2024-02-14T08:08:03.244Z,64.20
2024-02-14T08:10:14.308Z,66.20
2024-02-14T08:12:26.296Z,69.60
2024-02-14T08:14:37.186Z,71.90
2024-02-14T08:16:47.937Z,61.40
2024-02-14T08:18:59.646Z,74.70
2024-02-14T08:21:11.189Z,69.60
2024-02-14T08:23:21.972Z,67.20
2024-02-14T08:25:32.553Z,72.70
2024-02-14T08:27:43.508Z,67.80
2024-02-14T08:29:54.232Z,72.80
2024-02-14T08:32:05.562Z,74.40
2024-02-14T08:34:17.030Z,74.10
2024-02-14T08:36:27.879Z,63.30
2024-02-14T08:38:38.811Z,67.10
2024-02-14T08:40:49.327Z,71.60
2024-02-14T08:42:59.889Z,72.10
2024-02-14T08:45:11.177Z,68.90
2024-02-14T08:47:21.421Z,69.20
2024-02-14T08:49:32.245Z,67.70
2024-02-14T08:51:44.701Z,66.90
2024-02-14T08:53:57.767Z,66.30
2024-02-14T08:56:10.421Z,72.60
2024-02-14T08:58:21.818Z,69.90
2024-02-14T09:00:35.953Z,64.30
2024-02-14T09:02:50.577Z,69.90
2024-02-14T09:05:05.099Z,64.70
2024-02-14T09:07:16.866Z,60.90
2024-02-14T09:09:27.513Z,62.80
2024-02-14T09:11:38.407Z,63.90
2024-02-14T09:13:54.598Z,56.50
2024-02-14T09:16:06.314Z,59.10
2024-02-14T09:18:19.624Z,55.90
2024-02-14T09:20:31.088Z,53.50
2024-02-14T09:22:42.782Z,54.30
2024-02-14T09:24:53.631Z,54.10
2024-02-14T09:27:06.907Z,57.30
2024-02-14T09:29:17.921Z,58.10
2024-02-14T09:31:28.481Z,56.10
2024-02-14T09:33:40.478Z,57.80
2024-02-14T09:35:52.659Z,54.10
2024-02-14T09:38:03.453Z,60.70
2024-02-14T09:40:15.133Z,55.70
2024-02-14T09:42:47.620Z,51.50
2024-02-14T09:45:00.443Z,55.20
2024-02-14T09:47:11.704Z,53.80
2024-02-14T09:49:23.479Z,48.30
2024-02-14T09:51:34.574Z,51.60
2024-02-14T09:53:46.348Z,50.40
2024-02-14T09:55:57.794Z,47.80
2024-02-14T09:58:09.415Z,53.90
2024-02-14T10:00:21.009Z,54.30
2024-02-14T10:02:31.891Z,55.90
2024-02-14T10:04:42.416Z,50.90
2024-02-14T10:06:53.590Z,48.30
2024-02-14T10:09:05.144Z,46.70
2024-02-14T10:11:16.166Z,47.30
2024-02-14T10:13:29.310Z,51.20
2024-02-14T10:15:39.432Z,46.30
2024-02-14T10:17:50.316Z,50.70
2024-02-14T10:20:06.158Z,48.90
2024-02-14T10:22:16.552Z,53.20
2024-02-14T10:24:31.222Z,46.80
2024-02-14T10:26:43.615Z,50.80
2024-02-14T10:28:53.927Z,47.80
2024-02-14T10:31:06.387Z,42.50
2024-02-14T10:33:27.514Z,43.70
2024-02-14T10:35:42.127Z,48.00
2024-02-14T10:37:53.923Z,47.30
2024-02-14T10:40:05.618Z,47.00
2024-02-14T10:42:16.207Z,41.70
2024-02-14T10:44:27.859Z,44.20
2024-02-14T10:46:40.466Z,44.50
2024-02-14T10:48:55.309Z,43.40
2024-02-14T10:51:07.609Z,38.70
2024-02-14T10:53:19.526Z,41.00
2024-02-14T10:55:31.672Z,41.10
2024-02-14T10:57:44.170Z,36.00
2024-02-14T10:59:55.652Z,35.80
2024-02-14T11:02:07.283Z,36.70
2024-02-14T11:04:19.058Z,38.70
2024-02-14T11:06:32.893Z,37.10
2024-02-14T11:08:56.620Z,37.50
2024-02-14T11:11:07.464Z,36.40
2024-02-14T11:13:18.864Z,39.80
2024-02-14T11:15:32.035Z,35.40
2024-02-14T11:17:43.869Z,37.10
2024-02-14T11:19:54.799Z,35.80
2024-02-14T11:22:22.397Z,38.10
2024-02-14T11:24:37.062Z,38.50
2024-02-14T11:26:52.698Z,38.10
2024-02-14T11:29:04.626Z,39.30
2024-02-14T11:31:18.359Z,37.40
2024-02-14T11:33:28.836Z,34.60
2024-02-14T11:35:43.429Z,37.40
2024-02-14T11:37:54.491Z,34.40
2024-02-14T11:40:07.921Z,32.80
2024-02-14T11:42:18.967Z,33.00
2024-02-14T11:44:29.444Z,40.70
2024-02-14T11:46:41.805Z,36.20
2024-02-14T11:48:53.925Z,37.40
2024-02-14T11:51:08.612Z,40.10
2024-02-14T11:53:19.649Z,36.20
2024-02-14T11:55:30.750Z,37.40
2024-02-14T11:57:41.549Z,38.70
2024-02-14T11:59:54.442Z,38.90
2024-02-14T12:02:05.674Z,42.20
2024-02-14T12:04:16.871Z,42.00
2024-02-14T12:06:29.645Z,42.50
2024-02-14T12:08:40.956Z,38.70
2024-02-14T12:10:52.517Z,36.80
2024-02-14T12:13:10.569Z,34.00
2024-02-14T12:15:20.988Z,32.90
2024-02-14T12:17:32.880Z,28.40
2024-02-14T12:19:43.833Z,32.80
2024-02-14T12:21:56.930Z,30.10
2024-02-14T12:24:08.912Z,33.50
2024-02-14T12:26:46.405Z,53.10
2024-02-14T12:29:06.782Z,39.00
2024-02-14T12:31:23.689Z,29.70
2024-02-14T12:33:36.412Z,28.70
2024-02-14T12:35:50.547Z,30.60
2024-02-14T12:38:07.049Z,28.80
2024-02-14T12:40:20.834Z,29.00
2024-02-14T12:42:33.087Z,27.90
2024-02-14T12:44:48.387Z,27.50
2024-02-14T12:46:59.423Z,26.00
2024-02-14T12:49:10.612Z,27.90
2024-02-14T12:51:21.279Z,25.50
2024-02-14T12:53:32.995Z,24.80
2024-02-14T12:55:44.229Z,26.90
2024-02-14T12:57:56.839Z,23.70
2024-02-14T13:00:09.933Z,25.70
2024-02-14T13:02:23.593Z,29.40
2024-02-14T13:04:35.599Z,25.60
2024-02-14T13:06:49.974Z,25.20
2024-02-14T13:09:01.776Z,30.30
2024-02-14T13:11:15.263Z,28.80
2024-02-14T13:13:25.757Z,28.40
2024-02-14T13:15:37.498Z,25.70
2024-02-14T13:18:17.965Z,25.50
2024-02-14T13:21:02.598Z,24.50
2024-02-14T13:23:16.484Z,22.70
2024-02-14T13:25:41.081Z,23.50
2024-02-14T13:27:51.424Z,23.80
2024-02-14T13:30:03.280Z,25.30
2024-02-14T13:32:13.664Z,39.80
2024-02-14T13:34:25.311Z,43.30
2024-02-14T13:36:36.124Z,43.70
2024-02-14T13:38:46.822Z,50.90
2024-02-14T13:41:02.066Z,47.60
2024-02-14T13:46:10.156Z,35.60
2024-02-14T13:48:21.041Z,35.00
2024-02-14T13:50:32.396Z,30.40
2024-02-14T13:52:42.986Z,31.00
2024-02-14T13:54:53.859Z,32.60
2024-02-14T13:57:05.174Z,37.60
2024-02-14T13:59:15.694Z,34.00
2024-02-14T14:01:27.387Z,33.40
2024-02-14T14:03:38.454Z,37.30
2024-02-14T14:05:50.632Z,34.60
2024-02-14T14:08:01.261Z,34.20
2024-02-14T14:10:12.084Z,33.70
2024-02-14T14:12:22.385Z,38.40
2024-02-14T14:14:33.072Z,37.80
2024-02-14T14:16:44.311Z,38.80
2024-02-14T14:18:55.335Z,43.20
2024-02-14T14:21:06.211Z,41.00
2024-02-14T14:27:04.602Z,39.40
2024-02-14T14:29:16.819Z,36.20
2024-02-14T14:31:30.507Z,36.40
2024-02-14T14:33:44.039Z,38.10
2024-02-14T14:35:57.014Z,36.20
2024-02-14T14:38:11.976Z,33.50
2024-02-14T14:40:23.388Z,35.50
2024-02-14T14:42:33.913Z,39.40
2024-02-14T14:44:44.682Z,44.70
2024-02-14T14:47:01.282Z,34.00
2024-02-14T14:49:20.622Z,37.40
2024-02-14T14:51:31.937Z,35.90
2024-02-14T14:53:42.926Z,43.30
2024-02-14T14:55:58.638Z,64.30
2024-02-14T14:58:14.052Z,67.00
2024-02-14T15:00:24.571Z,64.50
2024-02-14T15:02:36.600Z,57.10
2024-02-14T15:04:47.613Z,51.80
2024-02-14T15:07:04.226Z,51.70
2024-02-14T15:09:28.608Z,47.50
2024-02-14T15:11:45.715Z,56.20
2024-02-14T15:14:16.189Z,51.20
2024-02-14T15:16:41.883Z,47.60
2024-02-14T15:20:13.698Z,41.90
2024-02-14T15:22:33.738Z,40.70
2024-02-14T15:24:47.428Z,36.10
2024-02-14T15:27:04.766Z,39.80
2024-02-14T15:29:38.927Z,36.30
2024-02-14T15:32:18.120Z,42.60
2024-02-14T15:34:37.889Z,39.70
2024-02-14T15:37:01.430Z,38.50
2024-02-14T15:39:19.545Z,46.20
2024-02-14T15:41:34.137Z,45.30
2024-02-14T15:43:53.336Z,61.20
2024-02-14T15:46:11.197Z,79.50
2024-02-14T15:48:30.289Z,68.90
2024-02-14T15:50:50.019Z,66.70
2024-02-14T15:53:12.247Z,67.90
2024-02-14T15:55:29.991Z,68.30
2024-02-14T15:57:48.208Z,61.90
2024-02-14T16:00:20.412Z,51.50
2024-02-14T16:02:40.301Z,50.30
2024-02-14T16:04:55.586Z,40.70
2024-02-14T16:07:13.784Z,43.60
2024-02-14T16:09:29.445Z,46.10
2024-02-14T16:11:44.285Z,45.80
2024-02-14T16:14:01.034Z,42.40
2024-02-14T16:16:14.160Z,54.20
2024-02-14T16:18:29.613Z,59.50
2024-02-14T16:20:48.070Z,55.30
2024-02-14T16:23:03.313Z,64.90
2024-02-14T16:25:20.821Z,93.20
2024-02-14T16:27:36.634Z,96.20
2024-02-14T16:29:57.092Z,70.20
2024-02-14T16:32:13.671Z,56.70
2024-02-14T16:34:29.284Z,53.50
2024-02-14T16:36:45.851Z,50.00
2024-02-14T16:39:01.382Z,51.40
2024-02-14T16:41:21.671Z,46.60
2024-02-14T16:43:46.795Z,46.00
2024-02-14T16:46:02.936Z,54.70
2024-02-14T16:48:20.352Z,53.80
2024-02-14T16:50:36.662Z,61.50
2024-02-14T16:52:52.787Z,69.40
2024-02-14T16:55:14.054Z,60.20
2024-02-14T16:57:26.842Z,62.40
2024-02-14T16:59:56.964Z,58.60
2024-02-14T17:02:12.393Z,71.90
2024-02-14T17:04:30.584Z,61.60
2024-02-14T17:06:46.702Z,66.30
2024-02-14T17:09:03.837Z,69.60
2024-02-14T17:11:19.803Z,68.50
2024-02-14T17:13:36.458Z,71.70
2024-02-14T17:15:49.897Z,81.60
2024-02-14T17:18:02.502Z,72.50
2024-02-14T17:20:13.248Z,52.90
2024-02-14T17:22:31.718Z,50.70
2024-02-14T17:24:57.127Z,50.50
2024-02-14T17:27:20.977Z,52.50
2024-02-14T17:29:51.175Z,51.40
2024-02-14T17:32:20.525Z,51.40
2024-02-14T17:34:52.631Z,48.20
2024-02-14T17:37:09.556Z,47.20
2024-02-14T17:39:24.098Z,49.90
2024-02-14T17:41:34.997Z,46.60
2024-02-14T17:43:45.450Z,50.60
2024-02-14T17:45:59.684Z,47.10
2024-02-14T17:48:10.453Z,51.10
2024-02-14T17:50:20.835Z,50.10
2024-02-14T17:52:33.542Z,51.10
2024-02-14T17:54:45.274Z,53.80
2024-02-14T17:56:56.255Z,48.90
2024-02-14T17:59:07.151Z,53.40
2024-02-14T18:01:21.017Z,50.00
2024-02-14T18:03:34.588Z,50.20
2024-02-14T18:05:45.570Z,49.40
2024-02-14T18:07:56.115Z,48.60
2024-02-14T18:10:07.053Z,50.20
2024-02-14T18:12:17.786Z,52.90
2024-02-14T18:14:32.820Z,52.40
2024-02-14T18:16:43.070Z,49.50
2024-02-14T18:18:53.933Z,52.20
2024-02-14T18:21:04.975Z,53.20
2024-02-14T18:23:15.479Z,50.70
2024-02-14T18:25:25.427Z,56.20
2024-02-14T18:27:35.573Z,55.00
2024-02-14T18:29:46.566Z,51.50
2024-02-14T18:31:57.517Z,54.70
2024-02-14T18:34:08.128Z,51.10
2024-02-14T18:36:19.893Z,56.70
2024-02-14T18:38:32.170Z,56.70
2024-02-14T18:40:43.340Z,55.80
2024-02-14T18:42:53.796Z,57.90
2024-02-14T18:45:08.604Z,52.40
2024-02-14T18:47:19.484Z,58.20
2024-02-14T18:49:30.288Z,58.60
2024-02-14T18:51:42.086Z,60.20
2024-02-14T18:53:52.472Z,55.90
2024-02-14T18:56:05.049Z,62.20
2024-02-14T18:58:16.807Z,62.40
2024-02-14T19:00:27.492Z,64.40
2024-02-14T19:02:39.001Z,57.40
2024-02-14T19:04:52.114Z,57.40
2024-02-14T19:07:04.673Z,63.10
2024-02-14T19:09:17.936Z,58.40
2024-02-14T19:11:30.859Z,64.60
2024-02-14T19:13:55.060Z,66.90
2024-02-14T19:16:12.766Z,63.10
2024-02-14T19:18:31.649Z,66.10
2024-02-14T19:20:45.073Z,70.10
2024-02-14T19:22:56.538Z,62.00
2024-02-14T19:25:07.507Z,67.30
2024-02-14T19:27:18.435Z,67.30
2024-02-14T19:29:29.765Z,65.70
2024-02-14T19:31:40.828Z,60.80
2024-02-14T19:33:53.369Z,62.20
2024-02-14T19:36:04.968Z,65.90
2024-02-14T19:38:15.992Z,70.60
2024-02-14T19:40:26.925Z,66.40
2024-02-14T19:42:38.568Z,66.70
2024-02-14T19:44:49.351Z,70.50
2024-02-14T19:47:00.078Z,64.10
2024-02-14T19:49:14.192Z,70.70
2024-02-14T19:51:25.300Z,66.20
2024-02-14T19:53:36.528Z,85.40
2024-02-14T19:55:47.761Z,68.30
2024-02-14T19:57:59.144Z,68.50
2024-02-14T20:00:12.438Z,69.20
2024-02-14T20:02:24.290Z,67.50
2024-02-14T20:04:35.189Z,60.60
2024-02-14T20:06:51.207Z,85.30
2024-02-14T20:09:02.727Z,82.90
2024-02-14T20:11:14.067Z,89.40
2024-02-14T20:13:25.247Z,75.80
2024-02-14T20:15:36.025Z,83.00
2024-02-14T20:17:49.335Z,84.20
2024-02-14T20:20:00.611Z,77.10
2024-02-14T20:22:12.607Z,85.40
2024-02-14T20:24:23.763Z,93.70
2024-02-14T20:26:35.275Z,99.40
2024-02-14T20:28:45.789Z,78.60
2024-02-14T20:30:56.596Z,82.80
2024-02-14T20:33:08.087Z,79.10
2024-02-14T20:35:19.652Z,79.30
2024-02-14T20:37:31.600Z,86.50
2024-02-14T20:39:43.964Z,86.90
2024-02-14T20:41:55.064Z,85.60
2024-02-14T20:44:05.878Z,84.80
2024-02-14T20:46:19.449Z,86.20
2024-02-14T20:48:30.706Z,101.80
2024-02-14T20:50:42.332Z,95.50
2024-02-14T20:52:54.498Z,110.50
2024-02-14T20:55:05.857Z,116.00
2024-02-14T20:57:16.806Z,97.00
2024-02-14T20:59:29.028Z,104.10
2024-02-14T21:01:40.430Z,96.30
2024-02-14T21:03:54.176Z,96.10
2024-02-14T21:06:06.633Z,107.60
2024-02-14T21:08:17.599Z,101.30
2024-02-14T21:10:28.411Z,100.50
2024-02-14T21:12:40.108Z,112.80
2024-02-14T21:14:50.530Z,110.90
2024-02-14T21:17:01.643Z,103.50
2024-02-14T21:19:12.100Z,119.60
2024-02-14T21:21:22.955Z,119.40
2024-02-14T21:23:34.566Z,107.10
2024-02-14T21:25:45.319Z,107.40
2024-02-14T21:27:59.649Z,113.20
2024-02-14T21:30:11.596Z,129.10
2024-02-14T21:32:26.281Z,114.40
2024-02-14T21:34:38.408Z,104.60
2024-02-14T21:36:51.326Z,111.30
2024-02-14T21:39:07.407Z,111.60
2024-02-14T21:41:19.311Z,115.30
2024-02-14T21:43:31.400Z,117.40
2024-02-14T21:45:43.068Z,121.30
2024-02-14T21:47:54.704Z,122.30
2024-02-14T21:50:06.665Z,118.30
2024-02-14T21:52:17.476Z,114.40
2024-02-14T21:54:28.405Z,114.10
2024-02-14T21:56:39.045Z,124.60
2024-02-14T21:58:49.630Z,124.00
2024-02-14T22:01:00.416Z,124.60
2024-02-14T22:03:11.153Z,125.60
2024-02-14T22:05:22.424Z,134.00
2024-02-14T22:07:33.198Z,114.10
2024-02-14T22:09:53.085Z,130.00
2024-02-14T22:12:12.258Z,125.60
2024-02-14T22:14:24.028Z,119.80
2024-02-14T22:16:35.036Z,124.90
2024-02-14T22:18:45.818Z,125.30
2024-02-14T22:20:56.869Z,138.90
2024-02-14T22:23:09.352Z,133.90
2024-02-14T22:25:20.029Z,125.00
2024-02-14T22:27:30.809Z,132.20
2024-02-14T22:29:41.464Z,143.00
2024-02-14T22:31:52.958Z,129.70
2024-02-14T22:34:03.711Z,124.10
2024-02-14T22:36:14.389Z,134.10
2024-02-14T22:38:25.145Z,153.10
2024-02-14T22:40:36.644Z,157.20
2024-02-14T22:42:47.369Z,163.80
2024-02-14T22:44:58.480Z,129.60
2024-02-14T22:47:09.241Z,117.30
2024-02-14T22:49:19.600Z,135.90
2024-02-14T22:51:30.326Z,127.70
2024-02-14T22:53:45.454Z,129.30
2024-02-14T22:55:57.906Z,119.70
2024-02-14T22:58:09.391Z,113.70
2024-02-14T23:00:23.023Z,122.00
2024-02-14T23:02:33.501Z,107.00
2024-02-14T23:04:45.090Z,116.80
2024-02-14T23:06:55.952Z,114.00
2024-02-14T23:09:06.996Z,111.20
2024-02-14T23:11:18.080Z,116.70
2024-02-14T23:13:28.682Z,107.30
2024-02-14T23:15:39.044Z,114.10
2024-02-14T23:17:49.656Z,119.50
2024-02-14T23:20:00.837Z,117.30
2024-02-14T23:22:12.431Z,104.30
2024-02-14T23:24:22.880Z,109.80
2024-02-14T23:26:33.935Z,111.50
2024-02-14T23:28:45.258Z,103.80
2024-02-14T23:30:56.714Z,109.90
2024-02-14T23:33:12.675Z,111.80
2024-02-14T23:35:23.519Z,103.80
2024-02-14T23:37:34.287Z,119.00
2024-02-14T23:39:45.004Z,109.60
2024-02-14T23:41:56.010Z,103.10
2024-02-14T23:44:06.701Z,101.50
2024-02-14T23:46:17.297Z,102.80
2024-02-14T23:48:27.968Z,108.90
2024-02-14T23:50:38.686Z,111.50
2024-02-14T23:52:49.244Z,99.80
2024-02-14T23:55:01.938Z,108.50
2024-02-14T23:57:12.909Z,112.30
2024-02-14T23:59:24.145Z,108.70
